createdAt,value
2023-03-18T00:00:45.863Z,5.40
2023-03-18T00:03:12.534Z,5.40
2023-03-18T00:05:39.248Z,5.40
2023-03-18T00:08:06.565Z,5.40
2023-03-18T00:10:34.215Z,5.40
2023-03-18T00:13:02.053Z,5.40
2023-03-18T00:15:28.629Z,5.40
2023-03-18T00:17:55.151Z,5.40
2023-03-18T00:20:21.992Z,5.40
2023-03-18T00:22:48.539Z,5.40
2023-03-18T00:25:15.500Z,5.40
2023-03-18T00:27:42.063Z,5.40
2023-03-18T00:30:09.411Z,5.40
2023-03-18T00:32:36.004Z,5.30
2023-03-18T00:35:03.343Z,5.30
2023-03-18T00:37:30.570Z,5.30
2023-03-18T00:40:03.222Z,5.30
2023-03-18T00:42:29.764Z,5.30
2023-03-18T00:44:56.319Z,5.20
2023-03-18T00:47:22.843Z,5.20
2023-03-18T00:49:49.404Z,5.20
2023-03-18T00:52:15.956Z,5.20
2023-03-18T00:54:42.482Z,5.20
2023-03-18T00:57:09.073Z,5.10
2023-03-18T00:59:35.616Z,5.10
2023-03-18T01:02:02.224Z,5.10
2023-03-18T01:04:28.809Z,5.10
2023-03-18T01:06:55.438Z,5.10
2023-03-18T01:09:21.996Z,5.00
2023-03-18T01:11:48.686Z,5.00
2023-03-18T01:14:15.744Z,5.10
2023-03-18T01:16:42.344Z,5.10
2023-03-18T01:19:08.980Z,5.10
2023-03-18T01:21:35.547Z,5.10
2023-03-18T01:24:02.172Z,5.00
2023-03-18T01:26:29.019Z,5.00
2023-03-18T01:28:55.618Z,5.10
2023-03-18T01:31:22.264Z,5.00
2023-03-18T01:33:48.880Z,5.00
2023-03-18T01:36:15.696Z,5.00
2023-03-18T01:38:42.413Z,5.00
2023-03-18T01:41:09.980Z,5.00
2023-03-18T01:43:39.849Z,4.90
2023-03-18T01:46:31.013Z,4.90
2023-03-18T01:48:57.986Z,4.90
2023-03-18T01:51:26.688Z,4.90
2023-03-18T01:53:54.261Z,4.90
2023-03-18T01:56:21.682Z,4.90
2023-03-18T01:58:52.495Z,4.90
2023-03-18T02:01:24.554Z,4.90
2023-03-18T02:03:52.036Z,4.90
2023-03-18T02:06:19.027Z,4.90
2023-03-18T02:08:46.132Z,4.80
2023-03-18T02:11:12.961Z,4.80
2023-03-18T02:13:42.572Z,4.80
2023-03-18T02:16:38.117Z,4.80
2023-03-18T02:19:26.000Z,4.70
2023-03-18T02:21:58.596Z,4.70
2023-03-18T02:24:49.987Z,4.80
2023-03-18T02:27:27.712Z,4.80
2023-03-18T02:29:58.583Z,4.70
2023-03-18T02:32:28.546Z,4.70
2023-03-18T02:34:59.153Z,4.70
2023-03-18T02:37:25.719Z,4.60
2023-03-18T02:39:52.273Z,4.70
2023-03-18T02:42:31.978Z,4.70
2023-03-18T02:44:59.479Z,4.60
2023-03-18T02:47:28.534Z,4.60
2023-03-18T02:49:55.332Z,4.60
2023-03-18T02:52:21.925Z,4.60
2023-03-18T02:54:48.479Z,4.50
2023-03-18T02:57:15.031Z,4.50
2023-03-18T02:59:41.594Z,4.50
2023-03-18T03:02:08.175Z,4.60
2023-03-18T03:04:34.741Z,4.60
2023-03-18T03:07:01.346Z,4.60
2023-03-18T03:09:27.924Z,4.60
2023-03-18T03:11:54.599Z,4.60
2023-03-18T03:14:21.199Z,4.50
2023-03-18T03:16:47.740Z,4.50
2023-03-18T03:19:14.332Z,4.60
2023-03-18T03:21:40.982Z,4.50
2023-03-18T03:24:08.603Z,4.50
2023-03-18T03:26:35.636Z,4.50
2023-03-18T03:29:03.998Z,4.50
2023-03-18T03:31:30.839Z,4.40
2023-03-18T03:33:57.495Z,4.40
2023-03-18T03:36:24.321Z,4.50
2023-03-18T03:38:50.886Z,4.40
2023-03-18T03:41:17.539Z,4.50
2023-03-18T03:43:44.206Z,4.40
2023-03-18T03:46:11.635Z,4.40
2023-03-18T03:48:38.931Z,4.40
2023-03-18T03:51:06.168Z,4.40
2023-03-18T03:53:33.311Z,4.30
2023-03-18T03:55:59.882Z,4.40
2023-03-18T03:58:27.003Z,4.40
2023-03-18T04:00:53.583Z,4.40
2023-03-18T04:03:20.189Z,4.40
2023-03-18T04:05:46.856Z,4.40
2023-03-18T04:08:13.457Z,4.40
2023-03-18T04:10:40.189Z,4.40
2023-03-18T04:13:07.042Z,4.40
2023-03-18T04:15:33.617Z,4.40
2023-03-18T04:18:00.206Z,4.40
2023-03-18T04:20:26.762Z,4.40
2023-03-18T04:22:53.308Z,4.40
2023-03-18T04:25:19.932Z,4.40
2023-03-18T04:27:46.645Z,4.40
2023-03-18T04:30:13.835Z,4.40
2023-03-18T04:32:40.452Z,4.40
2023-03-18T04:35:07.822Z,4.40
2023-03-18T04:37:37.128Z,4.40
2023-03-18T04:40:05.357Z,4.40
2023-03-18T04:42:31.968Z,4.30
2023-03-18T04:44:58.588Z,4.30
2023-03-18T04:47:25.333Z,4.30
2023-03-18T04:49:51.919Z,4.40
2023-03-18T04:52:18.498Z,4.40
2023-03-18T04:54:45.041Z,4.30
2023-03-18T04:57:12.012Z,4.30
2023-03-18T04:59:38.570Z,4.30
2023-03-18T05:02:05.148Z,4.30
2023-03-18T05:04:31.689Z,4.30
2023-03-18T05:06:58.210Z,4.30
2023-03-18T05:09:24.781Z,4.30
2023-03-18T05:11:51.445Z,4.30
2023-03-18T05:14:17.962Z,4.20
2023-03-18T05:16:44.730Z,4.20
2023-03-18T05:19:11.728Z,4.20
2023-03-18T05:21:38.653Z,4.20
2023-03-18T05:24:05.523Z,4.20
2023-03-18T05:26:32.132Z,4.20
2023-03-18T05:28:58.844Z,4.20
2023-03-18T05:31:25.527Z,4.30
2023-03-18T05:33:52.131Z,4.20
2023-03-18T05:36:18.825Z,4.20
2023-03-18T05:38:45.394Z,4.20
2023-03-18T05:41:12.015Z,4.30
2023-03-18T05:43:38.564Z,4.30
2023-03-18T05:46:05.363Z,4.30
2023-03-18T05:48:31.952Z,4.20
2023-03-18T05:50:58.514Z,4.20
2023-03-18T05:53:25.088Z,4.30
2023-03-18T05:55:51.673Z,4.30
2023-03-18T05:58:18.264Z,4.30
2023-03-18T06:00:44.851Z,4.30
2023-03-18T06:03:11.474Z,4.30
2023-03-18T06:05:38.024Z,4.30
2023-03-18T06:08:04.666Z,4.30
2023-03-18T06:10:31.207Z,4.40
2023-03-18T06:12:57.765Z,4.40
2023-03-18T06:15:24.428Z,4.50
2023-03-18T06:17:51.138Z,4.50
2023-03-18T06:20:18.452Z,4.60
2023-03-18T06:22:45.652Z,4.70
2023-03-18T06:25:12.215Z,4.70
2023-03-18T06:27:38.967Z,4.80
2023-03-18T06:30:06.252Z,4.80
2023-03-18T06:32:33.005Z,4.90
2023-03-18T06:35:00.106Z,5.00
2023-03-18T06:37:26.797Z,5.00
2023-03-18T06:39:53.653Z,5.10
2023-03-18T06:42:20.325Z,5.20
2023-03-18T06:44:46.900Z,5.20
2023-03-18T06:47:13.658Z,5.30
2023-03-18T06:49:40.210Z,5.40
2023-03-18T06:52:06.813Z,5.40
2023-03-18T06:54:33.358Z,5.40
2023-03-18T06:56:59.998Z,5.50
2023-03-18T06:59:26.589Z,5.60
2023-03-18T07:01:53.657Z,5.60
2023-03-18T07:04:20.328Z,5.70
2023-03-18T07:06:46.893Z,5.70
2023-03-18T07:09:13.696Z,5.80
2023-03-18T07:11:40.237Z,5.90
2023-03-18T07:14:06.882Z,5.90
2023-03-18T07:16:33.713Z,6.00
2023-03-18T07:19:02.457Z,6.10
2023-03-18T07:21:29.261Z,6.20
2023-03-18T07:23:55.906Z,6.30
2023-03-18T07:26:22.671Z,6.40
2023-03-18T07:28:49.307Z,6.50
2023-03-18T07:31:15.911Z,6.60
2023-03-18T07:33:42.521Z,6.70
2023-03-18T07:36:09.348Z,6.80
2023-03-18T07:38:35.935Z,6.90
2023-03-18T07:41:02.514Z,7.00
2023-03-18T07:43:29.076Z,7.10
2023-03-18T07:45:55.669Z,7.20
2023-03-18T07:48:22.254Z,7.30
2023-03-18T07:50:48.815Z,7.40
2023-03-18T07:53:16.754Z,7.50
2023-03-18T07:55:44.492Z,7.60
2023-03-18T07:58:11.098Z,7.70
2023-03-18T08:00:37.682Z,7.70
2023-03-18T08:03:04.272Z,7.80
2023-03-18T08:05:31.125Z,8.00
2023-03-18T08:07:57.890Z,8.10
2023-03-18T08:10:24.493Z,8.30
2023-03-18T08:12:53.551Z,8.50
2023-03-18T08:15:22.058Z,8.70
2023-03-18T08:17:48.746Z,8.80
2023-03-18T08:20:15.366Z,9.00
2023-03-18T08:22:42.025Z,9.30
2023-03-18T08:25:09.355Z,9.40
2023-03-18T08:27:35.907Z,9.50
2023-03-18T08:30:03.933Z,9.70
2023-03-18T08:32:30.847Z,9.90
2023-03-18T08:34:57.476Z,10.20
2023-03-18T08:37:24.052Z,10.30
2023-03-18T08:39:50.663Z,10.50
2023-03-18T08:42:17.261Z,10.60
2023-03-18T08:44:43.837Z,10.90
2023-03-18T08:47:10.430Z,11.00
2023-03-18T08:49:37.087Z,11.10
2023-03-18T08:52:04.128Z,11.20
2023-03-18T08:54:30.737Z,11.30
2023-03-18T08:56:59.307Z,11.50
2023-03-18T08:59:26.420Z,11.60
2023-03-18T09:01:53.111Z,11.70
2023-03-18T09:04:19.804Z,11.80
2023-03-18T09:06:47.194Z,11.90
2023-03-18T09:09:13.736Z,12.00
2023-03-18T09:11:40.317Z,12.20
2023-03-18T09:14:07.273Z,12.30
2023-03-18T09:16:34.150Z,12.50
2023-03-18T09:19:00.701Z,12.70
2023-03-18T09:21:27.611Z,13.00
2023-03-18T09:23:54.229Z,13.20
2023-03-18T09:26:20.927Z,13.40
2023-03-18T09:28:47.530Z,13.50
2023-03-18T09:31:14.115Z,13.70
2023-03-18T09:33:40.828Z,13.90
2023-03-18T09:36:08.361Z,14.20
2023-03-18T09:38:35.319Z,14.50
2023-03-18T09:41:20.873Z,14.80
2023-03-18T09:44:20.178Z,14.90
2023-03-18T09:47:09.904Z,15.00
2023-03-18T09:49:55.646Z,15.10
2023-03-18T09:52:34.568Z,15.30
2023-03-18T09:55:21.805Z,15.30
2023-03-18T09:57:51.462Z,15.50
2023-03-18T10:00:32.004Z,15.50
2023-03-18T10:03:06.325Z,15.70
2023-03-18T10:05:35.193Z,15.80
2023-03-18T10:08:28.557Z,16.10
2023-03-18T10:10:55.293Z,16.10
2023-03-18T10:13:29.322Z,16.20
2023-03-18T10:15:59.560Z,16.30
2023-03-18T10:18:35.487Z,16.50
2023-03-18T10:21:20.250Z,16.70
2023-03-18T10:23:52.503Z,16.90
2023-03-18T10:26:57.666Z,17.00
2023-03-18T10:29:45.717Z,17.00
2023-03-18T10:32:48.634Z,17.00
2023-03-18T10:35:38.446Z,17.10
2023-03-18T10:38:31.770Z,17.10
2023-03-18T10:40:58.971Z,17.10
2023-03-18T10:43:32.261Z,17.20
2023-03-18T10:46:06.401Z,17.30
2023-03-18T10:48:43.718Z,17.40
2023-03-18T10:51:18.951Z,17.70
2023-03-18T10:53:54.296Z,17.90
2023-03-18T10:56:21.060Z,18.00
2023-03-18T10:58:47.933Z,18.10
2023-03-18T11:01:19.063Z,18.20
2023-03-18T11:04:05.853Z,18.20
2023-03-18T11:06:44.368Z,18.20
2023-03-18T11:09:15.592Z,18.30
2023-03-18T11:11:55.770Z,18.10
2023-03-18T11:14:27.604Z,18.10
2023-03-18T11:17:05.976Z,18.00
2023-03-18T11:19:40.496Z,18.20
2023-03-18T11:22:09.940Z,18.20
2023-03-18T11:24:38.038Z,18.40
2023-03-18T11:27:23.863Z,18.70
2023-03-18T11:30:02.971Z,18.90
2023-03-18T11:32:31.769Z,19.10
2023-03-18T11:35:04.429Z,19.30
2023-03-18T11:37:40.470Z,19.30
2023-03-18T11:40:15.809Z,19.40
2023-03-18T11:42:42.651Z,19.60
2023-03-18T11:45:36.302Z,19.70
2023-03-18T11:48:03.453Z,19.70
2023-03-18T11:50:44.623Z,19.70
2023-03-18T11:53:27.066Z,19.60
2023-03-18T11:56:22.912Z,19.80
2023-03-18T11:59:12.213Z,19.80
2023-03-18T12:02:27.227Z,19.80
2023-03-18T12:04:56.722Z,19.90
2023-03-18T12:07:51.626Z,19.70
2023-03-18T12:10:24.292Z,19.80
2023-03-18T12:13:00.013Z,19.60
2023-03-18T12:15:44.847Z,19.50
2023-03-18T12:18:40.558Z,19.90
2023-03-18T12:21:50.709Z,19.90
2023-03-18T12:24:26.173Z,20.00
2023-03-18T12:27:16.833Z,20.20
2023-03-18T12:30:07.808Z,19.90
2023-03-18T12:32:41.521Z,19.80
2023-03-18T12:35:23.033Z,19.80
2023-03-18T12:38:25.133Z,20.20
2023-03-18T12:40:51.664Z,20.30
2023-03-18T12:43:31.382Z,20.50
2023-03-18T12:46:04.113Z,20.60
2023-03-18T12:48:44.201Z,20.80
2023-03-18T12:51:20.888Z,20.80
2023-03-18T12:53:55.004Z,20.80
2023-03-18T12:56:25.524Z,20.80
2023-03-18T12:59:15.122Z,20.90
2023-03-18T13:02:03.730Z,21.20
2023-03-18T13:04:33.264Z,21.40
2023-03-18T13:07:14.772Z,21.20
2023-03-18T13:09:53.092Z,21.10
2023-03-18T13:12:36.577Z,21.10
2023-03-18T13:15:28.247Z,20.90
2023-03-18T13:17:59.736Z,20.90
2023-03-18T13:20:36.459Z,21.10
2023-03-18T13:23:45.250Z,20.80
2023-03-18T13:26:30.762Z,20.40
2023-03-18T13:29:15.294Z,20.60
2023-03-18T13:31:52.938Z,20.60
2023-03-18T13:34:55.672Z,20.70
2023-03-18T13:37:53.178Z,20.70
2023-03-18T13:40:49.125Z,21.00
2023-03-18T13:43:20.207Z,21.10
2023-03-18T13:45:52.376Z,21.10
2023-03-18T13:48:29.881Z,21.20
2023-03-18T13:50:58.262Z,21.30
2023-03-18T13:53:38.079Z,21.20
2023-03-18T13:56:06.889Z,21.30
2023-03-18T13:58:45.035Z,21.30
2023-03-18T14:01:23.839Z,21.10
2023-03-18T14:03:50.445Z,21.00
2023-03-18T14:06:16.972Z,21.00
2023-03-18T14:08:45.967Z,21.00
2023-03-18T14:11:18.440Z,21.40
2023-03-18T14:13:51.032Z,21.40
2023-03-18T14:16:28.831Z,21.30
2023-03-18T14:19:15.586Z,21.30
2023-03-18T14:21:47.840Z,21.10
2023-03-18T14:24:17.210Z,21.00
2023-03-18T14:27:01.665Z,20.90
2023-03-18T14:29:40.418Z,20.70
2023-03-18T14:32:33.257Z,20.60
2023-03-18T14:35:20.636Z,20.60
2023-03-18T14:38:00.407Z,20.60
2023-03-18T14:40:27.811Z,20.70
2023-03-18T14:43:06.693Z,20.90
2023-03-18T14:45:39.869Z,20.50
2023-03-18T14:48:19.277Z,20.50
2023-03-18T14:50:49.117Z,20.50
2023-03-18T14:53:48.915Z,20.40
2023-03-18T14:56:29.345Z,20.40
2023-03-18T14:58:56.142Z,20.30
2023-03-18T15:01:37.543Z,20.10
2023-03-18T15:04:06.286Z,20.20
2023-03-18T15:06:33.421Z,20.20
2023-03-18T15:09:06.945Z,20.10
2023-03-18T15:11:42.642Z,19.90
2023-03-18T15:14:32.786Z,19.80
2023-03-18T15:17:04.902Z,19.70
2023-03-18T15:19:32.300Z,19.70
2023-03-18T15:22:02.861Z,19.60
2023-03-18T15:24:29.751Z,19.50
2023-03-18T15:27:20.803Z,19.50
2023-03-18T15:29:58.996Z,19.30
2023-03-18T15:32:27.252Z,19.30
2023-03-18T15:35:17.111Z,19.30
2023-03-18T15:37:45.787Z,19.20
2023-03-18T15:40:24.345Z,19.20
2023-03-18T15:42:53.932Z,19.10
2023-03-18T15:45:24.482Z,19.00
2023-03-18T15:47:51.129Z,18.80
2023-03-18T15:50:31.635Z,18.60
2023-03-18T15:53:16.342Z,18.40
2023-03-18T15:55:48.556Z,18.50
2023-03-18T15:58:22.625Z,18.70
2023-03-18T16:00:50.046Z,18.60
2023-03-18T16:03:19.632Z,18.60
2023-03-18T16:05:46.295Z,18.50
2023-03-18T16:08:13.068Z,18.40
2023-03-18T16:10:41.151Z,18.30
2023-03-18T16:13:17.176Z,18.40
2023-03-18T16:15:43.728Z,18.30
2023-03-18T16:18:10.352Z,18.40
2023-03-18T16:20:36.968Z,18.50
2023-03-18T16:23:03.924Z,18.40
2023-03-18T16:25:30.528Z,18.40
2023-03-18T16:27:59.557Z,18.40
2023-03-18T16:30:31.361Z,18.30
2023-03-18T16:32:58.559Z,18.00
2023-03-18T16:35:29.930Z,17.80
2023-03-18T16:37:56.855Z,17.60
2023-03-18T16:40:26.388Z,17.80
2023-03-18T16:42:54.042Z,17.70
2023-03-18T16:45:30.678Z,17.50
2023-03-18T16:48:07.372Z,17.50
2023-03-18T16:50:37.033Z,17.30
2023-03-18T16:53:35.160Z,17.20
2023-03-18T16:56:18.405Z,17.40
2023-03-18T16:58:44.999Z,17.30
2023-03-18T17:01:15.379Z,17.10
2023-03-18T17:03:42.760Z,16.90
2023-03-18T17:06:09.353Z,16.80
2023-03-18T17:08:35.947Z,16.60
2023-03-18T17:11:04.170Z,16.50
2023-03-18T17:13:34.214Z,16.40
2023-03-18T17:16:00.883Z,16.30
2023-03-18T17:18:27.437Z,16.20
2023-03-18T17:20:54.006Z,16.10
2023-03-18T17:23:26.747Z,16.00
2023-03-18T17:25:58.649Z,15.80
2023-03-18T17:28:30.565Z,15.60
2023-03-18T17:30:57.254Z,15.40
2023-03-18T17:33:27.251Z,15.30
2023-03-18T17:35:54.489Z,15.10
2023-03-18T17:38:21.379Z,15.10
2023-03-18T17:40:48.446Z,15.00
2023-03-18T17:43:29.441Z,14.90
2023-03-18T17:45:57.010Z,14.70
2023-03-18T17:48:31.146Z,14.70
2023-03-18T17:51:04.320Z,14.50
2023-03-18T17:53:49.077Z,14.40
2023-03-18T17:56:16.647Z,14.20
2023-03-18T17:58:46.202Z,14.00
2023-03-18T18:01:21.342Z,13.90
2023-03-18T18:03:48.034Z,13.90
2023-03-18T18:06:20.365Z,13.70
2023-03-18T18:08:47.657Z,13.50
2023-03-18T18:11:25.186Z,13.40
2023-03-18T18:13:55.345Z,13.30
2023-03-18T18:16:22.054Z,13.30
2023-03-18T18:18:50.075Z,13.20
2023-03-18T18:21:20.234Z,13.10
2023-03-18T18:23:47.290Z,13.00
2023-03-18T18:26:15.694Z,13.00
2023-03-18T18:28:47.087Z,12.90
2023-03-18T18:31:15.627Z,12.80
2023-03-18T18:33:43.312Z,12.70
2023-03-18T18:36:10.442Z,12.60
2023-03-18T18:38:37.079Z,12.50
2023-03-18T18:41:04.760Z,12.40
2023-03-18T18:43:31.382Z,12.40
2023-03-18T18:45:58.592Z,12.30
2023-03-18T18:48:27.931Z,12.30
2023-03-18T18:50:54.538Z,12.10
2023-03-18T18:53:24.181Z,12.10
2023-03-18T18:55:52.743Z,12.00
2023-03-18T18:58:21.610Z,11.90
2023-03-18T19:00:50.559Z,11.90
2023-03-18T19:03:20.007Z,11.80
2023-03-18T19:05:49.067Z,11.70
2023-03-18T19:08:26.799Z,11.70
2023-03-18T19:10:59.407Z,11.60
2023-03-18T19:13:29.011Z,11.60
2023-03-18T19:15:58.424Z,11.60
2023-03-18T19:18:31.573Z,11.40
2023-03-18T19:20:58.131Z,11.40
2023-03-18T19:23:30.737Z,11.30
2023-03-18T19:25:57.520Z,11.30
2023-03-18T19:28:26.442Z,11.30
2023-03-18T19:30:52.958Z,11.30
2023-03-18T19:33:19.553Z,11.20
2023-03-18T19:35:46.124Z,11.20
2023-03-18T19:38:15.900Z,11.20
2023-03-18T19:40:42.623Z,11.00
2023-03-18T19:43:17.502Z,11.00
2023-03-18T19:45:46.356Z,11.10
2023-03-18T19:48:18.422Z,11.00
2023-03-18T19:50:45.807Z,10.90
2023-03-18T19:53:14.724Z,10.90
2023-03-18T19:55:41.967Z,10.80
2023-03-18T19:58:21.798Z,10.80
2023-03-18T20:00:48.449Z,10.80
2023-03-18T20:03:17.569Z,10.80
2023-03-18T20:05:44.342Z,10.80
2023-03-18T20:08:11.043Z,10.70
2023-03-18T20:10:39.089Z,10.70
2023-03-18T20:13:05.706Z,10.60
2023-03-18T20:15:32.828Z,10.60
2023-03-18T20:17:59.598Z,10.60
2023-03-18T20:20:31.212Z,10.60
2023-03-18T20:23:03.964Z,10.60
2023-03-18T20:25:36.019Z,10.60
2023-03-18T20:28:03.908Z,10.60
2023-03-18T20:30:32.897Z,10.50
2023-03-18T20:33:00.821Z,10.50
2023-03-18T20:35:29.507Z,10.50
2023-03-18T20:37:57.919Z,10.40
2023-03-18T20:40:30.179Z,10.40
2023-03-18T20:42:57.413Z,10.30
2023-03-18T20:45:25.102Z,10.20
2023-03-18T20:47:51.807Z,10.20
2023-03-18T20:50:22.033Z,10.20
2023-03-18T20:52:49.047Z,10.20
2023-03-18T20:55:27.452Z,10.10
2023-03-18T20:57:54.354Z,10.10
2023-03-18T21:00:23.844Z,10.00
2023-03-18T21:02:52.839Z,9.90
2023-03-18T21:05:20.501Z,9.90
2023-03-18T21:07:47.637Z,9.80
2023-03-18T21:10:22.777Z,9.80
2023-03-18T21:12:49.632Z,9.80
2023-03-18T21:15:18.825Z,9.70
2023-03-18T21:17:45.697Z,9.70
2023-03-18T21:20:22.663Z,9.60
2023-03-18T21:22:50.848Z,9.70
2023-03-18T21:25:22.928Z,9.70
2023-03-18T21:27:51.376Z,9.60
2023-03-18T21:30:19.824Z,9.60
2023-03-18T21:32:46.519Z,9.60
2023-03-18T21:35:24.692Z,9.50
2023-03-18T21:37:52.365Z,9.50
2023-03-18T21:40:21.874Z,9.50
2023-03-18T21:42:50.066Z,9.60
2023-03-18T21:45:19.547Z,9.50
2023-03-18T21:47:46.169Z,9.50
2023-03-18T21:50:26.539Z,9.50
2023-03-18T21:52:54.148Z,9.40
2023-03-18T21:55:21.100Z,9.40
2023-03-18T21:57:49.007Z,9.50
2023-03-18T22:00:17.766Z,9.40
2023-03-18T22:02:44.386Z,9.40
2023-03-18T22:05:22.308Z,9.40
2023-03-18T22:07:49.579Z,9.40
2023-03-18T22:10:21.314Z,9.30
2023-03-18T22:12:47.922Z,9.30
2023-03-18T22:15:23.592Z,9.20
2023-03-18T22:17:51.038Z,9.20
2023-03-18T22:20:17.911Z,9.20
2023-03-18T22:22:44.496Z,9.20
2023-03-18T22:25:35.300Z,9.20
2023-03-18T22:28:02.458Z,9.10
2023-03-18T22:30:31.512Z,9.10
2023-03-18T22:32:59.862Z,9.00
2023-03-18T22:35:28.475Z,9.00
2023-03-18T22:37:56.009Z,9.00
2023-03-18T22:40:25.528Z,9.00
2023-03-18T22:42:54.707Z,8.90
2023-03-18T22:45:29.813Z,8.90
2023-03-18T22:47:58.696Z,8.80
2023-03-18T22:50:27.636Z,8.80
2023-03-18T22:53:02.314Z,8.80
2023-03-18T22:55:34.641Z,8.70
2023-03-18T22:58:01.340Z,8.80
2023-03-18T23:00:38.642Z,8.70
2023-03-18T23:03:22.634Z,8.70
2023-03-18T23:05:51.539Z,8.70
2023-03-18T23:08:19.372Z,8.70
2023-03-18T23:10:46.724Z,8.80
2023-03-18T23:13:13.239Z,8.70
2023-03-18T23:15:39.803Z,8.70
2023-03-18T23:18:06.388Z,8.70
2023-03-18T23:20:33.202Z,8.60
2023-03-18T23:22:59.933Z,8.60
2023-03-18T23:25:26.663Z,8.60
2023-03-18T23:27:53.231Z,8.60
2023-03-18T23:30:19.800Z,8.50
2023-03-18T23:32:46.438Z,8.60
2023-03-18T23:35:13.068Z,8.60
2023-03-18T23:37:39.624Z,8.60
2023-03-18T23:40:06.701Z,8.60
2023-03-18T23:42:33.552Z,8.60
2023-03-18T23:45:00.158Z,8.60
2023-03-18T23:47:26.993Z,8.60
2023-03-18T23:49:53.555Z,8.60
2023-03-18T23:52:20.168Z,8.60
2023-03-18T23:54:46.738Z,8.70
2023-03-18T23:57:13.314Z,8.70
2023-03-18T23:59:39.949Z,8.60
